Time;durP1;ratioP1;P1;durP2;ratioP2;P2;SDS_P1;SDS_P2;PMS_P1;PMS_P2;Temp;Humidity;BMP_temperature;BMP_pressure;BME280_temperature;BME280_humidity;BME280_pressure;Samples;Min_cycle;Max_cycle;Signal;HPM_P1;HPM_P2
2022/09/20 00:00:42;;;;;;;1.00;0.60;;;11.10;99.90;;;;;;5032172;28;20189;-79
2022/09/20 00:03:09;;;;;;;0.10;0.10;;;11.10;99.90;;;;;;5029049;28;20243;-79
2022/09/20 00:05:37;;;;;;;0.20;0.20;;;11.20;99.90;;;;;;5030248;28;20213;-79
2022/09/20 00:08:05;;;;;;;0.10;0.10;;;11.20;99.90;;;;;;5031340;28;20283;-79
2022/09/20 00:10:34;;;;;;;0.40;0.40;;;11.10;99.90;;;;;;5032269;28;21262;-79
2022/09/20 00:13:01;;;;;;;0.20;0.20;;;11.10;99.90;;;;;;5028701;28;20308;-79
2022/09/20 00:15:27;;;;;;;0.30;0.30;;;11.10;99.90;;;;;;5031207;28;20271;-79
2022/09/20 00:17:52;;;;;;;0.20;0.20;;;11.10;99.90;;;;;;5034685;28;20186;-79
2022/09/20 00:20:18;;;;;;;0.20;0.20;;;11.10;99.90;;;;;;5030281;28;20189;-79
2022/09/20 00:22:44;;;;;;;0.13;0.13;;;11.10;99.90;;;;;;5031330;28;20592;-79
2022/09/20 00:25:09;;;;;;;1.10;0.20;;;11.10;99.90;;;;;;5031199;28;20301;-79
2022/09/20 00:27:35;;;;;;;0.20;0.20;;;11.00;99.90;;;;;;5029528;28;20648;-79
2022/09/20 00:30:00;;;;;;;0.10;0.10;;;11.00;99.90;;;;;;5029945;28;20670;-79
2022/09/20 00:32:26;;;;;;;0.43;0.33;;;11.00;99.90;;;;;;5027520;28;20209;-79
2022/09/20 00:35:06;;;;;;;0.10;0.10;;;11.00;99.90;;;;;;5026918;28;20202;-80
2022/09/20 00:37:40;;;;;;;0.10;0.10;;;11.00;99.90;;;;;;5031258;28;20188;-79
2022/09/20 00:40:09;;;;;;;0.30;0.30;;;11.00;99.90;;;;;;5028886;28;20228;-79
2022/09/20 00:42:35;;;;;;;0.10;0.10;;;11.00;99.90;;;;;;5031044;28;20196;-79
2022/09/20 00:45:03;;;;;;;0.20;0.20;;;11.00;99.90;;;;;;5031081;28;20197;-79
2022/09/20 00:47:32;;;;;;;0.10;0.10;;;11.00;99.90;;;;;;5031905;28;20407;-79
2022/09/20 00:50:09;;;;;;;0.13;0.13;;;11.00;99.90;;;;;;5034532;28;20178;-79
2022/09/20 00:52:35;;;;;;;0.10;0.10;;;10.90;99.90;;;;;;5029804;28;20198;-80
2022/09/20 00:55:05;;;;;;;1.10;0.43;;;11.00;99.90;;;;;;5035226;28;20199;-79
2022/09/20 00:57:34;;;;;;;4.17;0.40;;;11.00;99.90;;;;;;5027591;28;20174;-80
2022/09/20 01:00:03;;;;;;;0.13;0.13;;;10.90;99.90;;;;;;5033423;28;20185;-79
2022/09/20 01:02:31;;;;;;;0.17;0.17;;;10.90;99.90;;;;;;5028588;28;20194;-79
2022/09/20 01:04:57;;;;;;;0.57;0.47;;;10.90;99.90;;;;;;5030266;28;20207;-79
2022/09/20 01:07:24;;;;;;;0.77;0.40;;;10.80;99.90;;;;;;5026607;28;20285;-80
2022/09/20 01:09:50;;;;;;;0.10;0.10;;;10.80;99.90;;;;;;5029457;28;20193;-79
2022/09/20 01:12:19;;;;;;;0.30;0.10;;;10.70;99.90;;;;;;5026202;28;20200;-79
2022/09/20 01:14:48;;;;;;;0.20;0.20;;;10.70;99.90;;;;;;5026934;28;20208;-79
2022/09/20 01:17:14;;;;;;;0.53;0.53;;;10.60;99.90;;;;;;5029564;28;20277;-79
2022/09/20 01:19:59;;;;;;;0.53;0.53;;;10.60;99.90;;;;;;5027463;28;20189;-79
2022/09/20 01:22:51;;;;;;;1.47;0.20;;;10.60;99.90;;;;;;5027064;28;20252;-79
2022/09/20 01:25:35;;;;;;;4.97;0.30;;;10.60;99.90;;;;;;5030887;28;20220;-80
2022/09/20 01:28:01;;;;;;;0.10;0.10;;;10.60;99.90;;;;;;5026822;28;20658;-79
2022/09/20 01:30:46;;;;;;;0.30;0.30;;;10.50;99.90;;;;;;5029253;28;20204;-79
2022/09/20 01:33:36;;;;;;;0.20;0.20;;;10.50;99.90;;;;;;5029494;28;20200;-80
2022/09/20 01:36:04;;;;;;;0.10;0.10;;;10.50;99.90;;;;;;5027288;28;20182;-79
2022/09/20 01:39:00;;;;;;;2.67;0.50;;;10.50;99.90;;;;;;5031390;28;20197;-79
2022/09/20 01:41:46;;;;;;;1.03;0.20;;;10.50;99.90;;;;;;5031651;28;20220;-79
2022/09/20 01:44:37;;;;;;;0.27;0.27;;;10.50;99.90;;;;;;5030179;28;20725;-80
2022/09/20 01:47:17;;;;;;;0.10;0.10;;;10.50;99.90;;;;;;5033181;28;20183;-79
2022/09/20 01:50:07;;;;;;;0.10;0.10;;;10.50;99.90;;;;;;5032497;28;20184;-79
2022/09/20 01:52:59;;;;;;;0.20;0.20;;;10.50;99.90;;;;;;5032923;28;20449;-80
2022/09/20 01:55:49;;;;;;;0.27;0.27;;;10.40;99.90;;;;;;5033027;28;20242;-80
2022/09/20 01:58:24;;;;;;;0.40;0.40;;;10.40;99.90;;;;;;5030685;28;21806;-79
2022/09/20 02:01:02;;;;;;;0.10;0.10;;;10.30;99.90;;;;;;5030473;28;20191;-79
2022/09/20 02:03:31;;;;;;;1.53;0.37;;;10.30;99.90;;;;;;5032376;28;20674;-79
2022/09/20 02:06:31;;;;;;;0.10;0.10;;;10.30;99.90;;;;;;5031287;28;20543;-79
2022/09/20 02:09:12;;;;;;;0.20;0.20;;;10.20;99.90;;;;;;5033585;28;20183;-79
2022/09/20 02:12:15;;;;;;;0.20;0.20;;;10.10;99.90;;;;;;5032696;28;20967;-79
2022/09/20 02:15:08;;;;;;;0.27;0.27;;;10.00;99.90;;;;;;5031769;28;20215;-79
2022/09/20 02:17:53;;;;;;;0.20;0.20;;;9.90;99.90;;;;;;5030570;28;20182;-79
2022/09/20 02:20:44;;;;;;;0.10;0.10;;;9.80;99.90;;;;;;5028028;28;20232;-80
2022/09/20 02:23:40;;;;;;;0.00;0.00;;;9.90;99.90;;;;;;5031592;28;20236;-79
2022/09/20 02:26:44;;;;;;;0.10;0.10;;;10.00;99.90;;;;;;5033085;28;20261;-79
2022/09/20 02:29:16;;;;;;;0.20;0.13;;;10.00;99.90;;;;;;5036446;28;20196;-79
2022/09/20 02:32:18;;;;;;;0.10;0.10;;;10.00;99.90;;;;;;5041807;28;20242;-79
2022/09/20 02:34:53;;;;;;;0.20;0.20;;;10.00;99.90;;;;;;5036752;28;20227;-79
2022/09/20 02:37:40;;;;;;;0.20;0.20;;;10.00;99.90;;;;;;5037273;28;20721;-79
2022/09/20 02:40:43;;;;;;;0.10;0.10;;;10.10;99.90;;;;;;5037707;28;20272;-79
2022/09/20 02:43:20;;;;;;;0.53;0.47;;;10.10;99.90;;;;;;5037788;28;20190;-79
2022/09/20 02:46:06;;;;;;;0.10;0.10;;;9.90;99.90;;;;;;5036394;28;20208;-79
2022/09/20 02:48:54;;;;;;;0.20;0.20;;;9.80;99.90;;;;;;5036205;28;20188;-79
2022/09/20 02:51:29;;;;;;;0.20;0.20;;;9.70;99.90;;;;;;5037073;28;20336;-79
2022/09/20 02:54:36;;;;;;;0.13;0.13;;;9.60;99.90;;;;;;5037501;28;20342;-79
2022/09/20 02:57:14;;;;;;;0.20;0.20;;;9.70;99.90;;;;;;5025206;28;20313;-79
2022/09/20 03:00:00;;;;;;;0.20;0.20;;;9.70;99.90;;;;;;5038235;28;20196;-79
2022/09/20 03:02:37;;;;;;;0.10;0.10;;;9.60;99.90;;;;;;5040882;28;20187;-79
2022/09/20 03:05:11;;;;;;;0.10;0.10;;;9.60;99.90;;;;;;5039153;28;20205;-79
2022/09/20 03:08:30;;;;;;;0.10;0.10;;;9.50;99.90;;;;;;5040947;28;20354;-79
2022/09/20 03:11:30;;;;;;;0.20;0.20;;;9.40;99.90;;;;;;5023891;28;20204;-79
2022/09/20 03:14:14;;;;;;;5.50;0.30;;;9.50;99.90;;;;;;5036985;28;20713;-79
2022/09/20 03:16:55;;;;;;;0.20;0.20;;;9.40;99.90;;;;;;5033615;28;20924;-79
2022/09/20 03:19:26;;;;;;;0.30;0.30;;;9.60;99.90;;;;;;5033005;28;20189;-79
2022/09/20 03:22:20;;;;;;;0.20;0.20;;;9.60;99.90;;;;;;5033228;28;20670;-79
2022/09/20 03:25:15;;;;;;;0.93;0.87;;;9.60;99.90;;;;;;5035070;28;20224;-79
2022/09/20 03:28:16;;;;;;;0.10;0.10;;;9.50;99.90;;;;;;5033566;28;20196;-79
2022/09/20 03:31:00;;;;;;;0.20;0.20;;;9.60;99.90;;;;;;5020612;28;20329;-79
2022/09/20 03:33:47;;;;;;;0.33;0.33;;;9.60;99.90;;;;;;5029953;28;20204;-79
2022/09/20 03:36:39;;;;;;;0.30;0.30;;;9.60;99.90;;;;;;5032328;28;20699;-79
2022/09/20 03:39:16;;;;;;;0.20;0.20;;;9.60;99.90;;;;;;5031465;28;20192;-78
2022/09/20 03:42:04;;;;;;;0.10;0.10;;;9.60;99.90;;;;;;5031315;28;20612;-78
2022/09/20 03:44:38;;;;;;;0.67;0.50;;;9.60;99.90;;;;;;5047288;28;20227;-79
2022/09/20 03:47:27;;;;;;;0.10;0.10;;;9.70;99.90;;;;;;5031399;28;20580;-79
2022/09/20 03:50:17;;;;;;;0.30;0.20;;;9.70;99.90;;;;;;5028955;28;20498;-79
2022/09/20 03:53:01;;;;;;;0.43;0.30;;;9.80;99.90;;;;;;5031313;28;20209;-79
2022/09/20 03:55:53;;;;;;;0.20;0.20;;;9.80;99.90;;;;;;5029597;28;20288;-79
2022/09/20 03:58:43;;;;;;;0.37;0.37;;;9.80;99.90;;;;;;4985787;28;20573;-78
2022/09/20 04:01:32;;;;;;;0.40;0.40;;;9.80;99.90;;;;;;5032098;28;20220;-79
2022/09/20 04:04:22;;;;;;;0.57;0.57;;;9.90;99.90;;;;;;5031814;28;20262;-79
2022/09/20 04:07:06;;;;;;;0.20;0.20;;;9.90;99.90;;;;;;5029670;28;20316;-79
2022/09/20 04:09:50;;;;;;;0.30;0.30;;;9.90;99.90;;;;;;5031942;28;20188;-79
2022/09/20 04:12:40;;;;;;;0.30;0.30;;;9.90;99.90;;;;;;5027909;28;20196;-79
2022/09/20 04:15:36;;;;;;;0.30;0.30;;;9.70;99.90;;;;;;5029604;28;20287;-79
2022/09/20 04:18:32;;;;;;;0.40;0.40;;;9.70;99.90;;;;;;5030942;28;20174;-79
2022/09/20 04:21:38;;;;;;;0.67;0.50;;;9.80;99.90;;;;;;5033702;28;20850;-79
2022/09/20 04:24:11;;;;;;;0.40;0.30;;;9.80;99.90;;;;;;5033309;28;20224;-79
2022/09/20 04:26:43;;;;;;;0.20;0.20;;;9.90;99.90;;;;;;5034797;28;20200;-78
2022/09/20 04:29:25;;;;;;;0.30;0.30;;;10.00;99.90;;;;;;5035322;28;20273;-79
2022/09/20 04:32:09;;;;;;;0.10;0.10;;;10.10;99.90;;;;;;5034758;28;20665;-79
2022/09/20 04:37:37;;;;;;;0.20;0.20;;;10.20;99.90;;;;;;5035184;28;20183;-79
2022/09/20 04:40:13;;;;;;;0.50;0.50;;;10.30;99.90;;;;;;5035525;28;20228;-79
2022/09/20 04:43:10;;;;;;;0.60;0.60;;;10.20;99.90;;;;;;5035110;28;20174;-78
2022/09/20 04:46:17;;;;;;;0.20;0.20;;;10.20;99.90;;;;;;5035730;28;20210;-79
2022/09/20 04:49:15;;;;;;;0.70;0.70;;;10.10;99.90;;;;;;5020336;28;20277;-79
2022/09/20 04:52:05;;;;;;;0.40;0.40;;;10.10;99.90;;;;;;5034427;28;20235;-79
2022/09/20 04:54:57;;;;;;;1.67;1.23;;;10.10;99.90;;;;;;5036327;28;20294;-79
2022/09/20 04:57:22;;;;;;;0.37;0.33;;;10.10;99.90;;;;;;5036667;28;20181;-78
2022/09/20 05:00:03;;;;;;;0.20;0.20;;;10.00;99.90;;;;;;5032359;28;20183;-78
2022/09/20 05:02:41;;;;;;;0.47;0.47;;;10.10;99.90;;;;;;5034596;28;20211;-78
2022/09/20 05:05:34;;;;;;;0.20;0.20;;;10.10;99.90;;;;;;5033627;28;20212;-78
2022/09/20 05:08:00;;;;;;;0.23;0.23;;;10.10;99.90;;;;;;5034222;28;20192;-78
2022/09/20 05:11:05;;;;;;;6.03;1.43;;;10.00;99.90;;;;;;5033258;28;20190;-78
2022/09/20 05:13:45;;;;;;;0.20;0.20;;;10.00;99.90;;;;;;5032142;28;20210;-78
2022/09/20 05:16:47;;;;;;;3.20;0.40;;;10.00;99.90;;;;;;5030286;28;20183;-82
2022/09/20 05:19:27;;;;;;;0.20;0.20;;;10.00;99.90;;;;;;5037296;28;20192;-82
2022/09/20 05:22:28;;;;;;;0.40;0.40;;;10.00;99.90;;;;;;5038931;28;20188;-82
2022/09/20 05:24:54;;;;;;;0.27;0.27;;;10.00;99.90;;;;;;5042161;28;20208;-81
2022/09/20 05:27:35;;;;;;;0.23;0.23;;;10.10;99.90;;;;;;5041531;28;20196;-81
2022/09/20 05:30:33;;;;;;;0.20;0.20;;;10.20;99.90;;;;;;5039312;28;20296;-81
2022/09/20 05:33:13;;;;;;;0.10;0.10;;;10.20;99.90;;;;;;5032745;28;20219;-80
2022/09/20 05:35:56;;;;;;;0.00;0.00;;;10.30;99.90;;;;;;5037292;28;20215;-80
2022/09/20 05:38:48;;;;;;;0.30;0.30;;;10.40;99.90;;;;;;5039636;28;20281;-80
2022/09/20 05:41:35;;;;;;;1.23;1.13;;;10.40;99.90;;;;;;5038961;28;20184;-81
2022/09/20 05:44:07;;;;;;;0.20;0.20;;;10.40;99.90;;;;;;5036917;28;20213;-81
2022/09/20 05:47:10;;;;;;;0.10;0.10;;;10.40;99.90;;;;;;5037233;28;20594;-81
2022/09/20 05:50:00;;;;;;;0.10;0.10;;;10.40;99.90;;;;;;5031885;28;20191;-80
2022/09/20 05:52:58;;;;;;;0.30;0.30;;;10.30;99.90;;;;;;5033665;28;20205;-79
2022/09/20 05:55:59;;;;;;;0.23;0.23;;;10.30;99.90;;;;;;5033591;28;20205;-80
2022/09/20 05:58:34;;;;;;;0.10;0.10;;;10.40;99.90;;;;;;5006011;28;20196;-79
2022/09/20 06:01:45;;;;;;;0.10;0.10;;;10.40;99.90;;;;;;5033148;28;20732;-79
2022/09/20 06:04:28;;;;;;;0.77;0.30;;;10.40;99.90;;;;;;5012291;28;20706;-78
2022/09/20 06:07:07;;;;;;;0.27;0.27;;;10.40;99.90;;;;;;5032560;28;20234;-79
2022/09/20 06:10:07;;;;;;;0.30;0.30;;;10.40;99.90;;;;;;5046317;28;20209;-79
2022/09/20 06:12:56;;;;;;;0.73;0.40;;;10.50;99.90;;;;;;5031690;28;20245;-79
2022/09/20 06:15:35;;;;;;;0.20;0.20;;;10.60;99.90;;;;;;5031319;28;20211;-79
2022/09/20 06:18:43;;;;;;;0.17;0.17;;;10.70;99.90;;;;;;5034653;28;20183;-79
2022/09/20 06:21:32;;;;;;;0.37;0.37;;;10.90;99.90;;;;;;5032159;28;20203;-79
2022/09/20 06:24:00;;;;;;;0.20;0.20;;;11.10;99.90;;;;;;5033008;28;20224;-79
2022/09/20 06:26:32;;;;;;;0.30;0.30;;;11.20;99.90;;;;;;5031684;28;20222;-79
2022/09/20 06:29:02;;;;;;;0.23;0.23;;;11.30;99.90;;;;;;5032030;28;20197;-79
2022/09/20 06:31:28;;;;;;;0.10;0.10;;;11.30;99.90;;;;;;5034768;28;20269;-79
2022/09/20 06:34:02;;;;;;;0.10;0.10;;;11.30;99.90;;;;;;5032393;28;20304;-79
2022/09/20 06:42:25;;;;;;;0.30;0.30;;;11.70;99.90;;;;;;5030643;28;20180;-79
2022/09/20 06:44:50;;;;;;;0.50;0.50;;;11.80;99.90;;;;;;5029475;28;20640;-79
2022/09/20 06:47:17;;;;;;;0.30;0.30;;;11.80;99.90;;;;;;5031904;28;20216;-79
2022/09/20 06:49:45;;;;;;;0.23;0.23;;;11.70;99.90;;;;;;5032986;28;21205;-79
2022/09/20 06:52:19;;;;;;;0.70;0.70;;;11.80;99.90;;;;;;5028092;28;20213;-79
2022/09/20 06:54:47;;;;;;;0.23;0.23;;;12.20;99.90;;;;;;5030425;28;20218;-79
2022/09/20 06:57:34;;;;;;;1.37;1.37;;;12.40;99.90;;;;;;5029917;28;20182;-79
2022/09/20 07:00:00;;;;;;;0.53;0.53;;;12.60;99.90;;;;;;5029464;28;20188;-81
2022/09/20 07:02:26;;;;;;;0.50;0.50;;;12.80;99.90;;;;;;5028597;28;20181;-79
2022/09/20 07:04:56;;;;;;;0.27;0.27;;;12.90;99.90;;;;;;5031879;28;20208;-79
2022/09/20 07:07:22;;;;;;;0.67;0.50;;;12.90;99.90;;;;;;5030855;28;20276;-79
2022/09/20 07:09:48;;;;;;;0.17;0.17;;;12.80;99.90;;;;;;5032693;28;20725;-79
2022/09/20 07:12:13;;;;;;;0.10;0.10;;;12.60;99.90;;;;;;5032310;28;20281;-79
2022/09/20 07:14:39;;;;;;;0.43;0.40;;;12.50;99.90;;;;;;5034576;28;20208;-79
2022/09/20 07:17:05;;;;;;;0.20;0.10;;;12.60;99.90;;;;;;5035250;28;20192;-79
2022/09/20 07:19:31;;;;;;;0.13;0.13;;;13.00;99.90;;;;;;5034175;28;20254;-79
2022/09/20 07:21:56;;;;;;;1.20;0.20;;;13.40;99.90;;;;;;5034316;28;20239;-79
2022/09/20 07:24:22;;;;;;;0.20;0.20;;;13.60;99.90;;;;;;5033716;28;21106;-79
2022/09/20 07:26:56;;;;;;;0.23;0.23;;;13.60;99.90;;;;;;5034887;28;20189;-79
2022/09/20 07:29:22;;;;;;;0.80;0.80;;;13.60;99.90;;;;;;5032962;28;20352;-79
2022/09/20 07:31:48;;;;;;;0.77;0.67;;;13.60;99.90;;;;;;5034970;28;20196;-79
2022/09/20 07:34:17;;;;;;;0.47;0.47;;;13.70;99.90;;;;;;5033372;28;20282;-79
2022/09/20 07:36:42;;;;;;;0.50;0.30;;;13.90;99.90;;;;;;5030648;28;20173;-79
2022/09/20 07:39:08;;;;;;;0.37;0.37;;;14.20;99.90;;;;;;5029025;28;20602;-79
2022/09/20 07:41:34;;;;;;;0.30;0.30;;;14.10;99.90;;;;;;5034068;28;20182;-79
2022/09/20 07:44:19;;;;;;;0.30;0.30;;;14.30;99.90;;;;;;5032306;28;20208;-79
2022/09/20 07:46:47;;;;;;;0.20;0.20;;;14.60;99.90;;;;;;5033662;28;20732;-80
2022/09/20 07:49:13;;;;;;;0.70;0.63;;;14.60;99.90;;;;;;5031304;28;20259;-79
2022/09/20 07:51:38;;;;;;;0.20;0.20;;;14.80;99.90;;;;;;5034210;28;20276;-79
2022/09/20 07:54:04;;;;;;;0.17;0.17;;;15.00;99.90;;;;;;5034046;28;20223;-80
2022/09/20 07:56:29;;;;;;;0.50;0.50;;;15.20;99.90;;;;;;5032649;28;20186;-79
2022/09/20 07:58:55;;;;;;;0.30;0.30;;;15.00;99.90;;;;;;5032511;28;20277;-79
2022/09/20 08:01:21;;;;;;;0.57;0.57;;;14.80;99.90;;;;;;5031231;28;20219;-79
2022/09/20 08:03:47;;;;;;;0.30;0.30;;;15.00;99.90;;;;;;5031589;28;20236;-79
2022/09/20 08:06:15;;;;;;;0.30;0.30;;;14.90;99.90;;;;;;5032111;28;20276;-79
2022/09/20 08:08:41;;;;;;;0.40;0.40;;;14.70;99.90;;;;;;5034391;28;20196;-79
2022/09/20 08:11:10;;;;;;;0.40;0.40;;;14.90;99.90;;;;;;5033219;28;20264;-80
2022/09/20 08:13:36;;;;;;;0.43;0.30;;;14.70;99.90;;;;;;5033254;28;20210;-79
2022/09/20 08:16:05;;;;;;;0.33;0.33;;;14.10;99.90;;;;;;5032937;28;20272;-80
2022/09/20 08:18:31;;;;;;;5.33;0.30;;;14.20;99.90;;;;;;5031751;28;20182;-79
2022/09/20 08:21:09;;;;;;;2.10;0.80;;;14.70;99.90;;;;;;5032593;28;20201;-79
2022/09/20 08:23:39;;;;;;;0.20;0.20;;;14.90;99.90;;;;;;5033714;28;20173;-80
2022/09/20 08:26:06;;;;;;;2.13;0.30;;;15.30;99.90;;;;;;5030274;28;20182;-79
2022/09/20 08:28:32;;;;;;;0.30;0.30;;;15.90;99.90;;;;;;5032909;28;20193;-79
2022/09/20 08:31:09;;;;;;;0.30;0.30;;;16.30;99.90;;;;;;5029432;28;20199;-79
2022/09/20 08:33:38;;;;;;;0.30;0.30;;;16.50;99.90;;;;;;5028825;28;20282;-79
2022/09/20 08:36:09;;;;;;;0.73;0.40;;;16.50;99.90;;;;;;5029797;28;20193;-79
2022/09/20 08:38:34;;;;;;;0.30;0.30;;;16.50;99.90;;;;;;5032101;28;20207;-80
2022/09/20 08:41:06;;;;;;;0.67;0.30;;;16.30;99.90;;;;;;5032965;28;21238;-79
2022/09/20 08:43:41;;;;;;;0.20;0.20;;;16.20;99.90;;;;;;5033095;28;20185;-80
2022/09/20 08:46:15;;;;;;;0.30;0.30;;;16.20;99.90;;;;;;5031868;28;20226;-79
2022/09/20 08:48:41;;;;;;;0.33;0.33;;;16.10;99.90;;;;;;5031039;28;20199;-79
2022/09/20 08:51:10;;;;;;;0.23;0.20;;;15.90;99.90;;;;;;5031591;28;20213;-80
2022/09/20 08:53:42;;;;;;;2.03;1.50;;;15.70;99.90;;;;;;5030796;28;20265;-80
2022/09/20 08:56:10;;;;;;;0.70;0.70;;;15.60;99.90;;;;;;5030290;28;20183;-80
2022/09/20 08:58:37;;;;;;;2.43;0.97;;;15.50;99.90;;;;;;5031194;28;20188;-79
2022/09/20 09:01:02;;;;;;;0.50;0.50;;;15.40;99.90;;;;;;5031321;28;20285;-80
2022/09/20 09:03:28;;;;;;;0.30;0.23;;;15.10;99.90;;;;;;5031968;28;20281;-80
2022/09/20 09:05:56;;;;;;;0.47;0.47;;;15.40;99.90;;;;;;5031780;28;20192;-80
2022/09/20 09:08:35;;;;;;;0.20;0.20;;;15.70;99.90;;;;;;5034127;28;20650;-80
2022/09/20 09:11:08;;;;;;;0.40;0.40;;;16.10;99.90;;;;;;5034038;28;20183;-80
2022/09/20 09:13:41;;;;;;;0.13;0.13;;;15.60;99.90;;;;;;5032904;28;20200;-80
2022/09/20 09:16:13;;;;;;;0.20;0.20;;;15.60;99.90;;;;;;5034461;28;20891;-80
2022/09/20 09:18:45;;;;;;;0.20;0.20;;;15.60;99.90;;;;;;5033145;28;20753;-80
2022/09/20 09:21:30;;;;;;;0.40;0.33;;;15.70;99.90;;;;;;5036403;28;20191;-80
2022/09/20 09:24:08;;;;;;;0.20;0.20;;;15.90;99.90;;;;;;5032337;28;20208;-80
2022/09/20 09:26:36;;;;;;;0.40;0.40;;;16.00;99.90;;;;;;5033343;28;20393;-80
2022/09/20 09:29:19;;;;;;;0.20;0.20;;;15.90;99.90;;;;;;5033768;28;20188;-80
2022/09/20 09:31:50;;;;;;;0.20;0.20;;;15.80;99.90;;;;;;5034424;28;20196;-80
2022/09/20 09:34:23;;;;;;;0.30;0.30;;;15.60;99.90;;;;;;5034801;28;20223;-80
2022/09/20 09:36:49;;;;;;;0.30;0.30;;;15.40;99.90;;;;;;5035359;28;20171;-80
2022/09/20 09:39:24;;;;;;;0.30;0.30;;;15.30;99.90;;;;;;5036551;28;20315;-80
2022/09/20 09:41:50;;;;;;;0.23;0.20;;;15.30;99.90;;;;;;5033831;28;20522;-80
2022/09/20 09:44:26;;;;;;;0.10;0.10;;;15.50;99.90;;;;;;5033158;28;20748;-80
2022/09/20 09:46:53;;;;;;;0.50;0.40;;;15.70;99.90;;;;;;5034278;28;20193;-80
2022/09/20 09:49:18;;;;;;;1.07;0.47;;;15.90;99.90;;;;;;5033659;28;20190;-80
2022/09/20 09:52:24;;;;;;;1.50;0.47;;;15.80;99.90;;;;;;5030956;28;20880;-80
2022/09/20 09:54:52;;;;;;;0.33;0.33;;;15.80;99.90;;;;;;5034519;28;20683;-80
2022/09/20 09:57:35;;;;;;;0.70;0.70;;;16.00;99.90;;;;;;5033488;28;20267;-80
2022/09/20 10:00:09;;;;;;;0.30;0.27;;;16.00;99.90;;;;;;5032711;28;20187;-80
2022/09/20 10:02:57;;;;;;;0.37;0.23;;;16.00;99.90;;;;;;5032922;28;20175;-79
2022/09/20 10:05:58;;;;;;;0.20;0.20;;;15.80;99.90;;;;;;5031380;28;20353;-80
2022/09/20 10:08:38;;;;;;;0.33;0.33;;;15.90;99.90;;;;;;5033778;28;20192;-80
2022/09/20 10:11:38;;;;;;;1.40;0.57;;;15.80;99.90;;;;;;5034662;28;20189;-80
2022/09/20 10:14:41;;;;;;;0.17;0.17;;;15.60;99.90;;;;;;4994718;28;20285;-80
2022/09/20 10:17:21;;;;;;;0.30;0.30;;;15.40;99.90;;;;;;5033611;28;20179;-80
2022/09/20 10:20:09;;;;;;;0.47;0.47;;;15.10;99.90;;;;;;5033452;28;20744;-80
2022/09/20 10:22:45;;;;;;;0.70;0.70;;;14.70;99.90;;;;;;5030118;28;20182;-80
2022/09/20 10:25:16;;;;;;;0.20;0.20;;;14.60;99.90;;;;;;5031970;28;20234;-80
2022/09/20 10:27:49;;;;;;;0.43;0.43;;;14.50;99.90;;;;;;5031052;28;20183;-80
2022/09/20 10:30:22;;;;;;;0.97;0.47;;;14.40;99.90;;;;;;5032783;28;20210;-80
2022/09/20 10:33:12;;;;;;;0.50;0.50;;;14.40;99.90;;;;;;5033685;28;20232;-80
2022/09/20 10:35:54;;;;;;;0.30;0.30;;;14.50;99.90;;;;;;5029714;28;20226;-80
2022/09/20 10:38:30;;;;;;;0.40;0.40;;;14.60;99.90;;;;;;5032004;28;20257;-80
2022/09/20 10:44:08;;;;;;;0.17;0.17;;;15.10;99.90;;;;;;5032319;28;20280;-81
2022/09/20 10:47:05;;;;;;;0.50;0.50;;;15.30;99.90;;;;;;5032990;28;20186;-80
2022/09/20 10:49:50;;;;;;;0.33;0.33;;;16.00;99.90;;;;;;5033696;28;20178;-80
2022/09/20 10:52:18;;;;;;;0.53;0.47;;;16.50;99.90;;;;;;5032757;28;20207;-80
2022/09/20 10:55:21;;;;;;;0.77;0.27;;;16.60;99.90;;;;;;5030825;28;20204;-79
2022/09/20 10:58:04;;;;;;;0.20;0.20;;;16.50;99.90;;;;;;5029767;28;20270;-79
2022/09/20 11:01:08;;;;;;;0.27;0.20;;;16.40;99.90;;;;;;5032319;28;20212;-79
2022/09/20 11:03:51;;;;;;;0.23;0.23;;;16.40;99.90;;;;;;5031498;28;20203;-79
2022/09/20 11:06:46;;;;;;;0.30;0.30;;;16.30;99.90;;;;;;5029952;28;20188;-79
2022/09/20 11:09:17;;;;;;;0.27;0.27;;;16.40;99.90;;;;;;5029090;28;20449;-79
2022/09/20 11:11:48;;;;;;;0.33;0.30;;;16.30;99.90;;;;;;5030789;28;20537;-79
2022/09/20 11:14:39;;;;;;;0.27;0.27;;;16.40;99.90;;;;;;5032051;28;20222;-79
2022/09/20 11:17:14;;;;;;;0.10;0.10;;;16.50;99.90;;;;;;5004616;28;20555;-79
2022/09/20 11:20:14;;;;;;;0.10;0.10;;;16.50;99.90;;;;;;5030587;28;20279;-79
2022/09/20 11:22:47;;;;;;;0.30;0.30;;;16.70;99.90;;;;;;5031371;28;20181;-79
2022/09/20 11:25:33;;;;;;;0.40;0.20;;;16.80;99.90;;;;;;5030715;28;20200;-79
2022/09/20 11:28:34;;;;;;;0.10;0.10;;;16.80;99.90;;;;;;5033725;28;20185;-80
2022/09/20 11:31:07;;;;;;;0.20;0.20;;;16.80;99.90;;;;;;4988274;28;20194;-79
2022/09/20 11:33:55;;;;;;;0.10;0.10;;;17.20;99.90;;;;;;5030278;28;20554;-80
2022/09/20 11:36:38;;;;;;;0.40;0.20;;;17.30;99.90;;;;;;5033556;28;20268;-80
2022/09/20 11:39:34;;;;;;;0.27;0.27;;;17.30;99.90;;;;;;5028229;28;20308;-79
2022/09/20 11:42:01;;;;;;;0.10;0.10;;;17.30;99.90;;;;;;5033484;28;20189;-80
2022/09/20 11:44:27;;;;;;;0.20;0.20;;;17.10;99.90;;;;;;5032196;28;20208;-79
2022/09/20 11:47:09;;;;;;;0.20;0.20;;;17.10;99.90;;;;;;5030247;28;20190;-79
2022/09/20 11:49:37;;;;;;;0.20;0.20;;;17.20;99.90;;;;;;5031541;28;20232;-79
2022/09/20 11:52:18;;;;;;;0.20;0.20;;;17.30;99.90;;;;;;5030187;28;20193;-79
2022/09/20 11:54:46;;;;;;;0.10;0.10;;;17.40;99.90;;;;;;5030869;28;20223;-79
2022/09/20 11:57:17;;;;;;;1.40;1.30;;;17.30;99.90;;;;;;5032390;28;20185;-79
2022/09/20 11:59:50;;;;;;;0.20;0.20;;;17.10;99.90;;;;;;5033492;28;21010;-80
2022/09/20 12:02:50;;;;;;;0.13;0.13;;;17.50;99.90;;;;;;5030156;28;20658;-80
2022/09/20 12:05:36;;;;;;;0.40;0.40;;;17.10;99.90;;;;;;5031339;28;20289;-80
2022/09/20 12:08:16;;;;;;;0.37;0.37;;;16.50;99.90;;;;;;5030922;28;20186;-80
2022/09/20 12:10:53;;;;;;;0.20;0.20;;;16.50;99.90;;;;;;5027884;28;20177;-79
2022/09/20 12:13:24;;;;;;;0.20;0.20;;;16.60;99.90;;;;;;5031474;28;21277;-80
2022/09/20 12:16:03;;;;;;;0.20;0.20;;;16.50;99.90;;;;;;5031981;28;20204;-80
2022/09/20 12:18:37;;;;;;;0.17;0.17;;;16.50;99.90;;;;;;5032506;28;20196;-80
2022/09/20 12:21:15;;;;;;;0.20;0.20;;;16.70;99.90;;;;;;5028992;28;20186;-79
2022/09/20 12:23:51;;;;;;;0.93;0.23;;;16.50;99.90;;;;;;5030275;28;20669;-82
2022/09/20 12:26:19;;;;;;;0.30;0.30;;;16.70;99.90;;;;;;5033547;28;20185;-82
2022/09/20 12:28:50;;;;;;;0.20;0.20;;;17.10;99.90;;;;;;5030564;28;20184;-81
2022/09/20 12:34:23;;;;;;;0.30;0.30;;;17.60;99.90;;;;;;5029483;28;20227;-81
2022/09/20 12:36:54;;;;;;;0.30;0.23;;;18.00;99.90;;;;;;5030653;28;20701;-81
2022/09/20 12:39:26;;;;;;;0.30;0.30;;;18.00;99.90;;;;;;5032085;28;20507;-81
2022/09/20 12:42:09;;;;;;;0.40;0.40;;;17.70;99.90;;;;;;5032427;28;20272;-81
2022/09/20 12:44:56;;;;;;;0.27;0.27;;;17.30;99.90;;;;;;5034981;28;20196;-81
2022/09/20 12:47:28;;;;;;;0.20;0.20;;;16.80;99.90;;;;;;5037844;28;20189;-81
2022/09/20 12:52:49;;;;;;;0.30;0.20;;;17.20;99.90;;;;;;5035811;28;20199;-80
2022/09/20 12:55:30;;;;;;;0.23;0.23;;;17.40;99.90;;;;;;5032677;28;21168;-81
2022/09/20 12:58:04;;;;;;;0.40;0.40;;;17.30;99.90;;;;;;5034074;28;20188;-81
2022/09/20 13:00:35;;;;;;;0.13;0.13;;;17.20;99.90;;;;;;5034080;28;20184;-81
2022/09/20 13:03:28;;;;;;;0.30;0.30;;;17.10;99.90;;;;;;5035767;28;20189;-80
2022/09/20 13:06:06;;;;;;;0.10;0.10;;;17.10;99.90;;;;;;5033159;28;20206;-81
2022/09/20 13:08:56;;;;;;;0.53;0.53;;;17.00;99.90;;;;;;5036041;28;20265;-80
2022/09/20 13:11:40;;;;;;;0.30;0.30;;;16.80;99.90;;;;;;5033110;28;20765;-81
2022/09/20 13:14:24;;;;;;;0.17;0.17;;;16.70;99.90;;;;;;5035756;28;20245;-81
2022/09/20 13:16:57;;;;;;;0.20;0.20;;;16.70;99.90;;;;;;5030858;28;20176;-81
2022/09/20 13:19:37;;;;;;;0.20;0.20;;;16.90;99.90;;;;;;5035473;28;20186;-81
2022/09/20 13:22:18;;;;;;;0.40;0.40;;;16.90;99.90;;;;;;5034522;28;20190;-80
2022/09/20 13:24:46;;;;;;;0.40;0.40;;;17.00;99.90;;;;;;5034172;28;20275;-81
2022/09/20 13:27:20;;;;;;;3.93;0.37;;;16.90;99.90;;;;;;5035021;28;20178;-80
2022/09/20 13:29:46;;;;;;;0.20;0.20;;;16.40;99.90;;;;;;5032903;28;20282;-81
2022/09/20 13:32:18;;;;;;;0.50;0.50;;;16.80;99.90;;;;;;5034856;28;20197;-80
2022/09/20 13:34:44;;;;;;;0.27;0.27;;;17.10;99.90;;;;;;5035503;28;20894;-82
2022/09/20 13:37:20;;;;;;;0.13;0.13;;;17.10;99.90;;;;;;5035740;28;20644;-81
2022/09/20 13:39:46;;;;;;;0.20;0.20;;;17.00;99.90;;;;;;5033016;28;20286;-82
2022/09/20 13:42:18;;;;;;;0.10;0.10;;;16.90;99.90;;;;;;5033602;28;20242;-81
2022/09/20 13:44:44;;;;;;;0.50;0.40;;;17.20;99.90;;;;;;5032738;28;20267;-80
2022/09/20 13:47:30;;;;;;;0.20;0.20;;;17.00;99.90;;;;;;5054152;28;20196;-81
2022/09/20 13:50:22;;;;;;;0.10;0.10;;;17.10;99.90;;;;;;5035201;28;20193;-81
2022/09/20 13:52:54;;;;;;;0.17;0.17;;;17.20;99.90;;;;;;5036428;28;20217;-80
2022/09/20 13:55:37;;;;;;;0.10;0.10;;;17.00;99.90;;;;;;5033125;28;20756;-81
2022/09/20 13:58:17;;;;;;;0.20;0.20;;;16.60;99.90;;;;;;5051085;28;20191;-80
2022/09/20 14:00:49;;;;;;;0.20;0.20;;;16.30;99.90;;;;;;5036416;28;20181;-81
2022/09/20 14:03:19;;;;;;;0.10;0.10;;;15.80;99.90;;;;;;5037272;28;20198;-80